Aviation Digital Data Service (ADDS)

Output produced by METARs form (1201 UTC 19 January 2019)
found at http://www.aviationweather.gov/metar/data/
 
Forecast for: KFAT (FRESNO , CA, US)
Text: KFAT 191121Z 1912/2012 09003KT P6SM BKN200
Forecast period: 1200 to 1800 UTC 19 January 2019
Forecast type: FROM: standard forecast or significant change
Winds: from the E (90 degrees) at 3 MPH (3 knots; 1.5 m/s)
Visibility: 6 or more miles 10+ km)
Ceiling: 20000 feet AGL
Clouds: broken clouds at 20000 feet AGL
Weather: no significant weather forecast for this period
Text: FM191800 14003KT P6SM SCT200
Forecast period: 1800 UTC 19 January 2019 to 1200 UTC 20 January 2019
Forecast type: FROM: standard forecast or significant change
Winds: from the SE (140 degrees) at 3 MPH (3 knots; 1.5 m/s)
Visibility: 6 or more miles 10+ km)
Ceiling: at least 12,000 feet AGL
Clouds: scattered clouds at 20000 feet AGL
Weather: no significant weather forecast for this period
Text: TEMPO 2009/2012 2SM BR
Forecast period: 0900 to 1200 UTC 20 January 2019
Forecast type: TEMPORARY: The following changes expected for less than half the time period
Visibility: 2.00 miles (3.22 km)
Ceiling: unknown
Clouds: missing
Weather: BR  (mist)